Terminal Aerodrome Forecast
Issued by NWS

Home | Current Version | Previous Version | Text Only | Print | Product List | Glossary On
Versions: 1 2 3 4 5 6 7 8 9 10 11 12 13
000
FTUS46 KSEW 070545
TAFBFI
TAF
KBFI 070545Z 0706/0806 VRB03KT P6SM BKN200
     FM071200 18006KT P6SM SCT015 BKN200
     FM071400 18006KT P6SM BKN012 BKN200
     FM071830 27005KT P6SM BKN200
     FM072200 31005KT P6SM BKN200
     FM080300 VRB03KT P6SM BKN200=

USA.gov is the U.S. government's official web portal to all federal, state and local government web resources and services.